Time;durP1;ratioP1;P1;durP2;ratioP2;P2;SDS_P1;SDS_P2;PMS_P1;PMS_P2;Temp;Humidity;BMP_temperature;BMP_pressure;BME280_temperature;BME280_humidity;BME280_pressure;Samples;Min_cycle;Max_cycle;Signal;HPM_P1;HPM_P2
2021/05/22 00:28:41;;;;;;;1.05;1.05;;;;;;;;;;5202318;27;20092;-66
2021/05/22 00:31:17;;;;;;;1.23;1.15;;;;;;;;;;5204501;27;20164;-65
2021/05/22 00:34:00;;;;;;;0.70;0.70;;;;;;;;;;5223549;27;20136;-66
2021/05/22 00:36:42;;;;;;;0.80;0.80;;;;;;;;;;5223371;27;20145;-66
2021/05/22 00:39:20;;;;;;;;;;;;;;;;;;5223744;27;20109;-65
2021/05/22 00:41:50;;;;;;;1.05;1.05;;;;;;;;;;5204251;27;20374;-64
2021/05/22 00:44:30;;;;;;;0.95;0.95;;;;;;;;;;5223530;27;20093;-65
2021/05/22 00:47:02;;;;;;;0.95;0.95;;;;;;;;;;5223583;27;20419;-63
2021/05/22 00:49:32;;;;;;;0.90;0.90;;;;;;;;;;5223077;27;20104;-65
2021/05/22 00:51:59;;;;;;;1.95;1.17;;;;;;;;;;5204704;27;20081;-66
2021/05/22 00:54:26;;;;;;;1.00;1.00;;;;;;;;;;5204537;27;20085;-66
2021/05/22 00:56:53;;;;;;;0.62;0.62;;;;;;;;;;5186130;27;20093;-65
2021/05/22 00:59:20;;;;;;;1.25;1.10;;;;;;;;;;5203744;27;20104;-66
2021/05/22 01:01:47;;;;;;;1.52;0.90;;;;;;;;;;5222836;27;20072;-65
2021/05/22 01:04:18;;;;;;;0.80;0.80;;;;;;;;;;5203863;27;20101;-65
2021/05/22 01:06:45;;;;;;;1.02;1.00;;;;;;;;;;5204067;27;20104;-64
2021/05/22 01:09:16;;;;;;;1.50;1.23;;;;;;;;;;5204054;27;20080;-63
2021/05/22 01:12:00;;;;;;;1.05;1.00;;;;;;;;;;5187697;27;20073;-66
2021/05/22 01:14:48;;;;;;;2.17;1.30;;;;;;;;;;5188343;27;20085;-64
2021/05/22 01:17:19;;;;;;;0.90;0.90;;;;;;;;;;5205088;27;20104;-65
2021/05/22 01:19:55;;;;;;;1.45;1.35;;;;;;;;;;5187209;27;20069;-62
2021/05/22 01:22:24;;;;;;;0.75;0.75;;;;;;;;;;5187649;27;20516;-66
2021/05/22 01:25:04;;;;;;;2.65;1.08;;;;;;;;;;5203726;27;20476;-64
2021/05/22 01:27:33;;;;;;;1.08;1.08;;;;;;;;;;5204374;27;20089;-64
2021/05/22 01:30:00;;;;;;;2.08;1.00;;;;;;;;;;5186032;27;20067;-64
2021/05/22 01:32:27;;;;;;;0.93;0.93;;;;;;;;;;5203690;27;20174;-65
2021/05/22 01:34:56;;;;;;;0.93;0.93;;;;;;;;;;5203642;27;20440;-65
2021/05/22 01:37:22;;;;;;;1.00;1.00;;;;;;;;;;5222927;27;20073;-64
2021/05/22 01:39:52;;;;;;;3.03;1.50;;;;;;;;;;5222904;27;20451;-64
2021/05/22 01:42:19;;;;;;;1.20;1.10;;;;;;;;;;5224677;27;20100;-65
2021/05/22 01:44:46;;;;;;;1.00;1.00;;;;;;;;;;5203478;27;20073;-63
2021/05/22 01:47:13;;;;;;;1.35;1.25;;;;;;;;;;5186072;27;20101;-66
2021/05/22 01:49:40;;;;;;;3.05;1.10;;;;;;;;;;5185934;27;20077;-64
2021/05/22 01:52:08;;;;;;;0.90;0.90;;;;;;;;;;5203453;27;20093;-66
2021/05/22 01:54:39;;;;;;;1.25;1.15;;;;;;;;;;5203701;27;20083;-64
2021/05/22 01:57:13;;;;;;;1.20;1.10;;;;;;;;;;5189068;27;20510;-64
2021/05/22 01:59:40;;;;;;;1.75;1.45;;;;;;;;;;5203360;27;20123;-65
2021/05/22 02:02:06;;;;;;;2.35;1.05;;;;;;;;;;5203510;27;20196;-65
2021/05/22 02:04:33;;;;;;;1.17;1.17;;;;;;;;;;5203765;27;20064;-64
2021/05/22 02:07:01;;;;;;;2.80;1.62;;;;;;;;;;5186114;27;20081;-66
2021/05/22 02:09:27;;;;;;;1.00;1.00;;;;;;;;;;5186074;27;20178;-66
2021/05/22 02:11:54;;;;;;;0.80;0.80;;;;;;;;;;5186700;27;20081;-63
2021/05/22 02:14:32;;;;;;;1.12;1.02;;;;;;;;;;5187155;27;20077;-66
2021/05/22 02:16:59;;;;;;;1.55;1.30;;;;;;;;;;5187377;27;20073;-66
2021/05/22 02:19:26;;;;;;;1.00;1.00;;;;;;;;;;5204664;27;20069;-64
2021/05/22 02:21:53;;;;;;;1.95;1.30;;;;;;;;;;5204826;27;20108;-64
2021/05/22 02:24:24;;;;;;;2.17;1.23;;;;;;;;;;5205037;27;20065;-66
2021/05/22 02:27:02;;;;;;;0.85;0.85;;;;;;;;;;5168821;27;20078;-66
2021/05/22 02:29:38;;;;;;;1.85;1.50;;;;;;;;;;5154659;27;20069;-63
2021/05/22 02:32:05;;;;;;;1.00;1.00;;;;;;;;;;5183821;27;20659;-65
2021/05/22 02:34:53;;;;;;;1.25;1.15;;;;;;;;;;5183673;27;20062;-65
2021/05/22 02:37:21;;;;;;;2.42;1.10;;;;;;;;;;5183520;27;20494;-64
2021/05/22 02:39:51;;;;;;;1.00;1.00;;;;;;;;;;5202555;27;20167;-64
2021/05/22 02:42:18;;;;;;;1.37;1.27;;;;;;;;;;5183155;27;20427;-65
2021/05/22 02:44:48;;;;;;;2.25;1.23;;;;;;;;;;5165898;27;20066;-64
2021/05/22 02:47:14;;;;;;;0.93;0.93;;;;;;;;;;5183133;27;20082;-65
2021/05/22 02:49:43;;;;;;;1.67;1.20;;;;;;;;;;5183164;27;20446;-65
2021/05/22 02:52:11;;;;;;;0.80;0.80;;;;;;;;;;5200455;27;20120;-63
2021/05/22 02:54:39;;;;;;;1.00;1.00;;;;;;;;;;5183249;27;20058;-65
2021/05/22 02:57:08;;;;;;;1.42;1.33;;;;;;;;;;5183169;27;20088;-65
2021/05/22 02:59:34;;;;;;;1.35;1.23;;;;;;;;;;5183118;27;20092;-63
2021/05/22 03:02:01;;;;;;;1.33;1.27;;;;;;;;;;5183033;27;20088;-63
2021/05/22 03:04:29;;;;;;;2.15;1.67;;;;;;;;;;5183253;27;20078;-65
2021/05/22 03:06:55;;;;;;;1.30;1.20;;;;;;;;;;5182998;27;20554;-63
2021/05/22 03:09:21;;;;;;;2.60;1.23;;;;;;;;;;5200719;27;20170;-63
2021/05/22 03:11:48;;;;;;;2.35;1.02;;;;;;;;;;5201968;27;20101;-65
2021/05/22 03:14:14;;;;;;;1.30;1.08;;;;;;;;;;5182968;27;20085;-65
2021/05/22 03:16:41;;;;;;;5.97;1.12;;;;;;;;;;5182947;27;20116;-64
2021/05/22 03:19:07;;;;;;;1.12;1.10;;;;;;;;;;5202021;27;20062;-63
2021/05/22 03:21:33;;;;;;;8.23;1.27;;;;;;;;;;5202594;27;20078;-63
2021/05/22 03:23:59;;;;;;;1.37;1.27;;;;;;;;;;5182939;27;20113;-64
2021/05/22 03:26:27;;;;;;;7.53;1.92;;;;;;;;;;5184555;27;20112;-64
2021/05/22 03:28:54;;;;;;;1.30;1.20;;;;;;;;;;5204592;27;20061;-65
2021/05/22 03:31:21;;;;;;;1.00;1.00;;;;;;;;;;5223670;27;20172;-65
2021/05/22 03:33:48;;;;;;;3.03;2.00;;;;;;;;;;5223902;27;20065;-65
2021/05/22 03:36:15;;;;;;;0.95;0.95;;;;;;;;;;5204192;27;20443;-65
2021/05/22 03:38:42;;;;;;;0.82;0.82;;;;;;;;;;5186862;27;20080;-65
2021/05/22 03:41:08;;;;;;;3.28;1.42;;;;;;;;;;5223114;27;20092;-64
2021/05/22 03:43:35;;;;;;;4.25;1.20;;;;;;;;;;5204104;27;20086;-66
2021/05/22 03:46:02;;;;;;;1.00;1.00;;;;;;;;;;5203826;27;20069;-63
2021/05/22 03:48:30;;;;;;;2.55;1.10;;;;;;;;;;5204140;27;20247;-65
2021/05/22 03:50:56;;;;;;;1.30;1.20;;;;;;;;;;5223468;27;20084;-64
2021/05/22 03:53:24;;;;;;;1.55;1.10;;;;;;;;;;5223866;27;20078;-64
2021/05/22 03:55:51;;;;;;;0.85;0.85;;;;;;;;;;5186830;27;20066;-64
2021/05/22 03:58:17;;;;;;;1.58;1.30;;;;;;;;;;5204215;27;20475;-65
2021/05/22 04:00:45;;;;;;;1.20;1.00;;;;;;;;;;5223584;27;20193;-64
2021/05/22 04:03:12;;;;;;;1.25;1.20;;;;;;;;;;5204442;27;20088;-64
2021/05/22 04:05:38;;;;;;;1.00;1.00;;;;;;;;;;5223908;27;20471;-63
2021/05/22 04:08:05;;;;;;;2.28;1.35;;;;;;;;;;5223327;27;20097;-63
2021/05/22 04:10:32;;;;;;;0.75;0.75;;;;;;;;;;5223440;27;20420;-65
2021/05/22 04:12:58;;;;;;;2.67;1.23;;;;;;;;;;5223256;27;20144;-64
2021/05/22 04:15:24;;;;;;;1.17;1.10;;;;;;;;;;5204001;27;20128;-65
2021/05/22 04:17:50;;;;;;;1.00;1.00;;;;;;;;;;5223524;27;20081;-65
2021/05/22 04:20:17;;;;;;;0.88;0.88;;;;;;;;;;5203710;27;20073;-65
2021/05/22 04:22:43;;;;;;;3.70;1.05;;;;;;;;;;5223206;27;20062;-65
2021/05/22 04:25:10;;;;;;;1.25;1.15;;;;;;;;;;5223077;27;20073;-66
2021/05/22 04:27:36;;;;;;;1.48;1.27;;;;;;;;;;5222993;27;20073;-66
2021/05/22 04:30:05;;;;;;;1.30;1.20;;;;;;;;;;5222997;27;20080;-64
2021/05/22 04:32:31;;;;;;;1.52;1.42;;;;;;;;;;5222909;27;20076;-66
2021/05/22 04:34:58;;;;;;;1.50;1.30;;;;;;;;;;5203473;27;20094;-64
2021/05/22 04:37:24;;;;;;;2.87;1.00;;;;;;;;;;5222946;27;20060;-65
2021/05/22 04:39:50;;;;;;;1.00;1.00;;;;;;;;;;5223199;27;20438;-65
2021/05/22 04:42:18;;;;;;;0.88;0.88;;;;;;;;;;5223245;27;20079;-66
2021/05/22 04:44:45;;;;;;;2.00;1.80;;;;;;;;;;5203503;27;20084;-65
2021/05/22 04:47:12;;;;;;;1.00;1.00;;;;;;;;;;5186990;27;20533;-65
2021/05/22 04:49:38;;;;;;;0.90;0.90;;;;;;;;;;5223136;27;20079;-66
2021/05/22 04:52:04;;;;;;;1.27;1.17;;;;;;;;;;5203536;27;20070;-66
2021/05/22 04:54:30;;;;;;;1.40;1.30;;;;;;;;;;5222760;27;20521;-64
2021/05/22 04:56:56;;;;;;;3.95;1.42;;;;;;;;;;5203249;27;20153;-66
2021/05/22 04:59:22;;;;;;;2.12;1.50;;;;;;;;;;5221476;27;20521;-66
2021/05/22 05:01:49;;;;;;;0.95;0.95;;;;;;;;;;5203680;27;20077;-64
2021/05/22 05:04:15;;;;;;;4.53;1.52;;;;;;;;;;5223016;27;20198;-66
2021/05/22 05:06:43;;;;;;;3.12;1.05;;;;;;;;;;5222940;27;20085;-62
2021/05/22 05:09:10;;;;;;;1.60;1.40;;;;;;;;;;5203807;27;20084;-66
2021/05/22 05:11:37;;;;;;;7.45;1.30;;;;;;;;;;5204065;27;20470;-66
2021/05/22 05:14:04;;;;;;;8.13;1.50;;;;;;;;;;5186425;27;20080;-64
2021/05/22 05:16:30;;;;;;;1.35;1.10;;;;;;;;;;5222467;27;20083;-63
2021/05/22 05:18:57;;;;;;;1.00;1.00;;;;;;;;;;5186202;27;20186;-66
2021/05/22 05:21:23;;;;;;;1.85;1.20;;;;;;;;;;5203609;27;20435;-65
2021/05/22 05:23:51;;;;;;;1.65;1.40;;;;;;;;;;5186366;27;20270;-63
2021/05/22 05:26:18;;;;;;;0.88;0.88;;;;;;;;;;5222462;27;20091;-64
2021/05/22 05:28:44;;;;;;;1.10;1.10;;;;;;;;;;5203750;27;20100;-65
2021/05/22 05:31:11;;;;;;;0.90;0.90;;;;;;;;;;5222863;27;20093;-63
2021/05/22 05:33:37;;;;;;;4.40;1.37;;;;;;;;;;5222574;27;20093;-63
2021/05/22 05:36:04;;;;;;;3.58;1.30;;;;;;;;;;5203444;27;20093;-66
2021/05/22 05:38:30;;;;;;;1.05;0.95;;;;;;;;;;5222416;27;20077;-63
2021/05/22 05:40:57;;;;;;;0.90;0.90;;;;;;;;;;5203120;27;20077;-65
2021/05/22 05:43:24;;;;;;;1.25;1.15;;;;;;;;;;5203398;27;20291;-63
2021/05/22 05:45:50;;;;;;;1.10;1.10;;;;;;;;;;5222860;27;20088;-65
2021/05/22 05:48:16;;;;;;;0.73;0.73;;;;;;;;;;5204472;27;20062;-65
2021/05/22 05:50:42;;;;;;;1.35;1.25;;;;;;;;;;5223936;27;20510;-64
2021/05/22 05:53:09;;;;;;;1.10;1.10;;;;;;;;;;5204780;27;20085;-65
2021/05/22 05:55:35;;;;;;;2.85;1.20;;;;;;;;;;5204881;27;20104;-64
2021/05/22 05:58:02;;;;;;;2.05;1.02;;;;;;;;;;5204999;27;20061;-65
2021/05/22 06:00:28;;;;;;;0.95;0.95;;;;;;;;;;5223981;27;20478;-63
2021/05/22 06:02:54;;;;;;;1.98;1.17;;;;;;;;;;5223907;27;20156;-65
2021/05/22 06:05:20;;;;;;;2.35;1.08;;;;;;;;;;5223963;27;20097;-65
2021/05/22 06:07:47;;;;;;;0.80;0.80;;;;;;;;;;5204820;27;20061;-64
2021/05/22 06:10:13;;;;;;;0.90;0.90;;;;;;;;;;5187200;27;20076;-63
2021/05/22 06:12:41;;;;;;;0.93;0.93;;;;;;;;;;5222115;27;20163;-65
2021/05/22 06:15:58;;;;;;;1.67;1.23;;;;;;;;;;5205017;27;20476;-63
2021/05/22 06:17:58;;;;;;;0.90;0.90;;;;;;;;;;5214536;27;20085;-65
2021/05/22 06:20:26;;;;;;;1.80;1.25;;;;;;;;;;5224085;27;20609;-66
2021/05/22 06:22:53;;;;;;;0.70;0.70;;;;;;;;;;5224090;27;20174;-64
2021/05/22 06:25:20;;;;;;;1.52;1.17;;;;;;;;;;5223601;27;20170;-66
2021/05/22 06:27:47;;;;;;;1.37;1.35;;;;;;;;;;5223828;27;20074;-66
2021/05/22 06:30:13;;;;;;;0.95;0.95;;;;;;;;;;5204556;27;20072;-64
2021/05/22 06:32:40;;;;;;;1.48;1.12;;;;;;;;;;5223899;27;20085;-63
2021/05/22 06:35:07;;;;;;;2.50;1.40;;;;;;;;;;5224068;27;20136;-63
2021/05/22 06:37:33;;;;;;;0.80;0.80;;;;;;;;;;5204147;27;20104;-65
2021/05/22 06:40:01;;;;;;;1.25;1.10;;;;;;;;;;5204347;27;20103;-64
2021/05/22 06:42:31;;;;;;;1.23;1.23;;;;;;;;;;5223704;27;20062;-65
2021/05/22 06:45:21;;;;;;;3.42;1.35;;;;;;;;;;5223918;27;20090;-63
2021/05/22 06:47:47;;;;;;;0.90;0.90;;;;;;;;;;5223301;27;20167;-63
2021/05/22 06:50:18;;;;;;;1.00;1.00;;;;;;;;;;5205183;27;20078;-63
2021/05/22 06:53:04;;;;;;;2.50;1.33;;;;;;;;;;5192748;27;20082;-64
2021/05/22 06:55:52;;;;;;;3.87;1.33;;;;;;;;;;5205286;27;20068;-66
2021/05/22 06:58:54;;;;;;;1.95;1.20;;;;;;;;;;5209099;27;20140;-64
2021/05/22 07:01:31;;;;;;;0.95;0.95;;;;;;;;;;5206081;27;20167;-64
2021/05/22 07:04:21;;;;;;;1.80;1.10;;;;;;;;;;5224305;27;20179;-66
2021/05/22 07:07:32;;;;;;;1.10;1.10;;;;;;;;;;5224102;27;20099;-65
2021/05/22 07:10:22;;;;;;;0.70;0.70;;;;;;;;;;5223230;27;20091;-65
2021/05/22 07:13:00;;;;;;;1.40;1.27;;;;;;;;;;5206160;27;20175;-65
2021/05/22 07:15:28;;;;;;;1.17;1.10;;;;;;;;;;5223825;27;20081;-65
2021/05/22 07:17:56;;;;;;;0.80;0.80;;;;;;;;;;5204354;27;20415;-64
2021/05/22 07:20:27;;;;;;;1.35;1.25;;;;;;;;;;5205296;27;20507;-66
2021/05/22 07:22:55;;;;;;;2.15;1.20;;;;;;;;;;5223688;27;20062;-65
2021/05/22 07:25:23;;;;;;;3.10;1.62;;;;;;;;;;5223942;27;20096;-64
2021/05/22 07:27:56;;;;;;;3.90;1.23;;;;;;;;;;5204340;27;20065;-65
2021/05/22 07:30:23;;;;;;;0.90;0.90;;;;;;;;;;5224050;27;20073;-64
2021/05/22 07:33:06;;;;;;;0.90;0.90;;;;;;;;;;5222074;27;20548;-65
2021/05/22 07:35:44;;;;;;;1.33;1.23;;;;;;;;;;5206424;27;20523;-65
2021/05/22 07:38:14;;;;;;;1.65;1.37;;;;;;;;;;5204326;27;20113;-64
2021/05/22 07:40:44;;;;;;;1.37;1.20;;;;;;;;;;5204937;27;20085;-64
2021/05/22 07:43:12;;;;;;;3.90;1.17;;;;;;;;;;5223185;27;20088;-63
2021/05/22 07:45:44;;;;;;;1.12;1.05;;;;;;;;;;5186684;27;20157;-64
2021/05/22 07:48:11;;;;;;;8.90;1.55;;;;;;;;;;5205280;27;20551;-66
2021/05/22 07:50:47;;;;;;;5.80;1.80;;;;;;;;;;5204465;27;20468;-62
2021/05/22 07:53:20;;;;;;;1.35;1.15;;;;;;;;;;5204669;27;20076;-65
2021/05/22 07:55:58;;;;;;;0.93;0.93;;;;;;;;;;5190286;27;20148;-64
2021/05/22 07:58:27;;;;;;;11.80;1.48;;;;;;;;;;5204476;27;20092;-63
2021/05/22 08:01:01;;;;;;;1.40;1.30;;;;;;;;;;5204920;27;20244;-66
2021/05/22 08:03:28;;;;;;;2.53;1.42;;;;;;;;;;5223250;27;20186;-65
2021/05/22 08:05:55;;;;;;;9.00;1.60;;;;;;;;;;5223780;27;20185;-64
2021/05/22 08:08:21;;;;;;;8.00;1.80;;;;;;;;;;5223588;27;20101;-65
2021/05/22 08:10:49;;;;;;;3.42;1.55;;;;;;;;;;5223384;27;20089;-63
2021/05/22 08:13:15;;;;;;;2.12;1.27;;;;;;;;;;5186662;27;20075;-66
2021/05/22 08:15:41;;;;;;;1.70;1.20;;;;;;;;;;5223578;27;20072;-66
2021/05/22 08:18:07;;;;;;;10.60;2.10;;;;;;;;;;5223186;27;20097;-64
2021/05/22 08:20:33;;;;;;;2.62;1.10;;;;;;;;;;5223212;27;20468;-66
2021/05/22 08:23:00;;;;;;;2.67;1.60;;;;;;;;;;5203206;27;20228;-63
2021/05/22 08:25:26;;;;;;;1.10;1.05;;;;;;;;;;5222937;27;20404;-66
2021/05/22 08:27:53;;;;;;;5.53;1.42;;;;;;;;;;5199765;27;20515;-66
2021/05/22 08:30:20;;;;;;;5.05;1.75;;;;;;;;;;5201675;27;20456;-65
2021/05/22 08:32:47;;;;;;;1.33;1.00;;;;;;;;;;5201893;27;20073;-65
2021/05/22 08:35:31;;;;;;;3.45;1.92;;;;;;;;;;5200175;27;20436;-66
2021/05/22 08:38:05;;;;;;;1.95;1.10;;;;;;;;;;5199448;27;20113;-66
2021/05/22 08:40:31;;;;;;;3.62;1.42;;;;;;;;;;5202077;27;20172;-63
2021/05/22 08:42:57;;;;;;;1.75;1.17;;;;;;;;;;5200103;27;20412;-63
2021/05/22 08:45:23;;;;;;;3.67;1.55;;;;;;;;;;5201725;27;20085;-65
2021/05/22 08:47:53;;;;;;;2.25;2.08;;;;;;;;;;5201315;27;20086;-65
2021/05/22 08:50:20;;;;;;;1.10;1.10;;;;;;;;;;5201537;27;20154;-65
2021/05/22 08:52:46;;;;;;;1.77;1.10;;;;;;;;;;5201535;27;20089;-65
2021/05/22 08:55:12;;;;;;;5.12;1.25;;;;;;;;;;5200033;27;20157;-63
2021/05/22 08:57:43;;;;;;;4.03;1.37;;;;;;;;;;5201619;27;20070;-66
2021/05/22 09:00:18;;;;;;;4.95;1.35;;;;;;;;;;5201711;27;20092;-63
2021/05/22 09:02:44;;;;;;;3.40;1.30;;;;;;;;;;5198964;27;20805;-66
2021/05/22 09:05:30;;;;;;;4.37;1.48;;;;;;;;;;5182095;27;20093;-62
2021/05/22 09:08:00;;;;;;;3.80;1.60;;;;;;;;;;5201453;27;20145;-66
2021/05/22 09:10:49;;;;;;;4.82;1.35;;;;;;;;;;5199935;27;20097;-65
2021/05/22 09:13:21;;;;;;;13.80;1.87;;;;;;;;;;5200009;27;20088;-64
2021/05/22 09:16:07;;;;;;;4.43;1.40;;;;;;;;;;5201908;27;20065;-63
2021/05/22 09:18:40;;;;;;;1.62;1.35;;;;;;;;;;5201883;27;20523;-65
2021/05/22 09:21:08;;;;;;;4.85;1.48;;;;;;;;;;5182343;27;20093;-66
2021/05/22 09:23:39;;;;;;;9.48;1.58;;;;;;;;;;5201553;27;20090;-63
2021/05/22 09:26:09;;;;;;;12.02;1.67;;;;;;;;;;5186039;27;20081;-65
2021/05/22 09:28:59;;;;;;;4.50;1.35;;;;;;;;;;5222707;27;20064;-63
2021/05/22 09:31:27;;;;;;;9.48;1.45;;;;;;;;;;5222476;27;20117;-64
2021/05/22 09:33:59;;;;;;;9.23;1.50;;;;;;;;;;5203622;27;20082;-66
2021/05/22 09:36:26;;;;;;;7.93;1.20;;;;;;;;;;5222162;27;20098;-64
2021/05/22 09:38:53;;;;;;;3.35;1.20;;;;;;;;;;5203344;27;20154;-65
2021/05/22 09:41:27;;;;;;;2.17;1.20;;;;;;;;;;5222542;27;20077;-66
2021/05/22 09:44:25;;;;;;;2.15;1.05;;;;;;;;;;5222542;27;20113;-63
2021/05/22 09:46:51;;;;;;;6.78;1.73;;;;;;;;;;5221855;27;20195;-66
2021/05/22 09:49:37;;;;;;;3.17;1.75;;;;;;;;;;5222928;27;20480;-65
2021/05/22 09:52:09;;;;;;;5.78;1.55;;;;;;;;;;5222749;27;20391;-66
2021/05/22 09:54:45;;;;;;;3.95;1.60;;;;;;;;;;5222924;27;20164;-66
2021/05/22 09:57:15;;;;;;;1.52;1.42;;;;;;;;;;5222744;27;20590;-66
2021/05/22 09:59:43;;;;;;;3.45;1.27;;;;;;;;;;5222621;27;20068;-65
2021/05/22 10:02:09;;;;;;;1.25;1.17;;;;;;;;;;5222848;27;20501;-65
2021/05/22 10:04:50;;;;;;;2.20;1.30;;;;;;;;;;5222906;27;20145;-62
2021/05/22 10:07:33;;;;;;;1.60;1.30;;;;;;;;;;5222517;27;20427;-63
2021/05/22 10:10:01;;;;;;;1.77;1.40;;;;;;;;;;5222893;27;20131;-65
2021/05/22 10:12:28;;;;;;;1.90;1.23;;;;;;;;;;5203871;27;20081;-64
2021/05/22 10:15:10;;;;;;;4.55;1.30;;;;;;;;;;5203691;27;20254;-65
2021/05/22 10:17:44;;;;;;;12.65;1.50;;;;;;;;;;5204076;27;20094;-65
2021/05/22 10:20:11;;;;;;;2.47;1.23;;;;;;;;;;5222691;27;20476;-63
2021/05/22 10:22:37;;;;;;;4.03;1.42;;;;;;;;;;5222181;27;20602;-66
2021/05/22 10:25:05;;;;;;;6.30;1.50;;;;;;;;;;5203626;27;20093;-66
2021/05/22 10:27:35;;;;;;;7.90;1.50;;;;;;;;;;5186199;27;20097;-63
2021/05/22 10:30:03;;;;;;;2.00;1.50;;;;;;;;;;5185818;27;20093;-65
2021/05/22 10:32:31;;;;;;;5.28;1.92;;;;;;;;;;5222384;27;20521;-65
2021/05/22 10:35:12;;;;;;;9.35;2.10;;;;;;;;;;5205354;27;20140;-66
2021/05/22 10:37:49;;;;;;;8.67;2.10;;;;;;;;;;5205711;27;20431;-66
2021/05/22 10:40:41;;;;;;;4.97;2.12;;;;;;;;;;5223706;27;20405;-63
2021/05/22 10:43:07;;;;;;;8.45;2.25;;;;;;;;;;5223730;27;20069;-63
2021/05/22 10:45:38;;;;;;;6.10;2.45;;;;;;;;;;5204713;27;20084;-66
2021/05/22 10:48:06;;;;;;;4.45;2.45;;;;;;;;;;5223482;27;20077;-65
2021/05/22 10:50:33;;;;;;;5.18;1.90;;;;;;;;;;5223620;27;20175;-66
2021/05/22 10:53:34;;;;;;;7.93;1.95;;;;;;;;;;5223935;27;20092;-63
2021/05/22 10:56:14;;;;;;;6.95;1.67;;;;;;;;;;5224089;27;20073;-65
2021/05/22 10:58:59;;;;;;;8.57;1.90;;;;;;;;;;5205563;27;20083;-63
2021/05/22 11:01:43;;;;;;;9.82;1.90;;;;;;;;;;5223343;27;20292;-64
2021/05/22 11:04:17;;;;;;;2.72;1.48;;;;;;;;;;5223668;27;20294;-65
2021/05/22 11:06:52;;;;;;;6.60;1.95;;;;;;;;;;5223605;27;20554;-64
2021/05/22 11:09:30;;;;;;;5.72;1.62;;;;;;;;;;5223918;27;20081;-66
2021/05/22 11:12:09;;;;;;;12.07;2.17;;;;;;;;;;5223679;27;20084;-66
2021/05/22 11:14:57;;;;;;;6.55;2.12;;;;;;;;;;5223327;27;20119;-65
2021/05/22 11:17:26;;;;;;;5.97;1.75;;;;;;;;;;5204243;27;20069;-64
2021/05/22 11:20:01;;;;;;;5.45;2.12;;;;;;;;;;5223646;27;20155;-66
2021/05/22 11:22:55;;;;;;;6.87;1.70;;;;;;;;;;5222078;27;20258;-66
2021/05/22 11:25:52;;;;;;;10.10;1.83;;;;;;;;;;5204322;27;20076;-63
2021/05/22 11:28:22;;;;;;;3.60;1.83;;;;;;;;;;5204481;27;20081;-65
2021/05/22 11:30:53;;;;;;;5.10;1.80;;;;;;;;;;5223577;27;20085;-65
2021/05/22 11:33:22;;;;;;;5.78;1.83;;;;;;;;;;5187341;27;20079;-66
2021/05/22 11:35:52;;;;;;;7.53;3.20;;;;;;;;;;5223395;27;20104;-64
2021/05/22 11:38:18;;;;;;;6.12;2.08;;;;;;;;;;5223699;27;20120;-63
2021/05/22 11:40:44;;;;;;;7.75;2.90;;;;;;;;;;5223483;27;20089;-65
2021/05/22 11:43:14;;;;;;;11.02;2.03;;;;;;;;;;5223014;27;20462;-65
2021/05/22 11:45:41;;;;;;;8.63;2.42;;;;;;;;;;5223284;27;20093;-65
2021/05/22 11:48:28;;;;;;;9.93;2.75;;;;;;;;;;5203799;27;20104;-63
2021/05/22 11:50:57;;;;;;;12.93;2.62;;;;;;;;;;5223332;27;20105;-63
2021/05/22 11:53:27;;;;;;;6.53;2.22;;;;;;;;;;5223558;27;20076;-65
2021/05/22 11:56:05;;;;;;;9.70;2.90;;;;;;;;;;5203828;27;20182;-65
2021/05/22 11:58:31;;;;;;;9.52;3.25;;;;;;;;;;5223282;27;20702;-63
2021/05/22 12:01:23;;;;;;;4.95;2.92;;;;;;;;;;5223055;27;20176;-63
2021/05/22 12:03:53;;;;;;;6.55;2.60;;;;;;;;;;5223449;27;20071;-66
2021/05/22 12:06:48;;;;;;;15.27;3.10;;;;;;;;;;5223224;27;20097;-64
2021/05/22 12:09:20;;;;;;;15.00;2.67;;;;;;;;;;5223313;27;20431;-65
2021/05/22 12:11:59;;;;;;;6.35;3.00;;;;;;;;;;5203842;27;20053;-66
2021/05/22 12:14:54;;;;;;;17.52;3.65;;;;;;;;;;5203910;27;20064;-63
2021/05/22 12:17:20;;;;;;;7.75;2.50;;;;;;;;;;5186079;27;20085;-64
2021/05/22 12:19:49;;;;;;;12.55;4.30;;;;;;;;;;5223048;27;20089;-63
2021/05/22 12:22:15;;;;;;;14.50;3.00;;;;;;;;;;5223213;27;20081;-64
2021/05/22 12:24:41;;;;;;;9.30;3.03;;;;;;;;;;5203635;27;20090;-64
2021/05/22 12:27:12;;;;;;;5.37;2.87;;;;;;;;;;5222645;27;20101;-63
2021/05/22 12:29:38;;;;;;;17.40;3.47;;;;;;;;;;5186617;27;20068;-65
2021/05/22 12:32:05;;;;;;;13.05;3.15;;;;;;;;;;5203988;27;20494;-63
2021/05/22 12:34:31;;;;;;;6.28;2.47;;;;;;;;;;5223186;27;20100;-66
2021/05/22 12:37:00;;;;;;;7.80;3.30;;;;;;;;;;5222747;27;20092;-65
2021/05/22 12:39:42;;;;;;;13.50;3.40;;;;;;;;;;5203876;27;20088;-65
2021/05/22 12:42:25;;;;;;;19.17;3.25;;;;;;;;;;5186090;27;20190;-65
2021/05/22 12:44:53;;;;;;;10.27;3.22;;;;;;;;;;5204270;27;20223;-65
2021/05/22 12:47:24;;;;;;;7.97;2.65;;;;;;;;;;5222811;27;20069;-66
2021/05/22 12:49:55;;;;;;;18.20;3.97;;;;;;;;;;5221507;27;20066;-63
2021/05/22 12:52:21;;;;;;;10.43;4.07;;;;;;;;;;5222972;27;20181;-66
2021/05/22 12:54:47;;;;;;;11.10;4.28;;;;;;;;;;5203341;27;20073;-64
2021/05/22 12:57:36;;;;;;;10.23;3.33;;;;;;;;;;5203391;27;20074;-63
2021/05/22 13:00:02;;;;;;;17.83;3.75;;;;;;;;;;5222790;27;20104;-63
2021/05/22 13:02:28;;;;;;;10.68;3.30;;;;;;;;;;5222875;27;20073;-64
2021/05/22 13:05:04;;;;;;;18.85;4.85;;;;;;;;;;5222781;27;20073;-64
2021/05/22 13:07:40;;;;;;;19.12;3.65;;;;;;;;;;5220687;27;20629;-64
2021/05/22 13:10:07;;;;;;;13.88;3.83;;;;;;;;;;5223159;27;20073;-66
2021/05/22 13:12:34;;;;;;;14.00;3.25;;;;;;;;;;5222720;27;20080;-65
2021/05/22 13:15:01;;;;;;;16.30;3.35;;;;;;;;;;5203360;27;20107;-66
2021/05/22 13:17:53;;;;;;;7.43;2.65;;;;;;;;;;5222741;27;20058;-63
2021/05/22 13:20:24;;;;;;;7.55;2.97;;;;;;;;;;5187036;27;20080;-66
2021/05/22 13:22:50;;;;;;;7.90;3.35;;;;;;;;;;5222918;27;20475;-65
2021/05/22 13:25:20;;;;;;;8.75;3.22;;;;;;;;;;5203301;27;20525;-64
2021/05/22 13:28:00;;;;;;;14.77;4.10;;;;;;;;;;5203262;27;20154;-64
2021/05/22 13:30:28;;;;;;;24.58;3.35;;;;;;;;;;5203456;27;20074;-65
2021/05/22 13:32:54;;;;;;;12.27;3.67;;;;;;;;;;5203177;27;20475;-66
2021/05/22 13:35:21;;;;;;;15.77;3.92;;;;;;;;;;5222953;27;20144;-66
2021/05/22 13:37:47;;;;;;;15.88;3.47;;;;;;;;;;5222809;27;20513;-63
2021/05/22 13:40:14;;;;;;;17.45;4.12;;;;;;;;;;5203349;27;20085;-65
2021/05/22 13:42:40;;;;;;;14.15;3.80;;;;;;;;;;5222797;27;20471;-66
2021/05/22 13:45:07;;;;;;;17.98;3.22;;;;;;;;;;5223017;27;20087;-65
2021/05/22 13:47:36;;;;;;;13.68;3.17;;;;;;;;;;5203072;27;20067;-66
2021/05/22 13:50:04;;;;;;;23.05;3.55;;;;;;;;;;5203762;27;20074;-66
2021/05/22 13:52:30;;;;;;;15.25;3.22;;;;;;;;;;5222509;27;20089;-65
2021/05/22 13:54:57;;;;;;;19.45;2.33;;;;;;;;;;5222952;27;20088;-65
2021/05/22 13:57:24;;;;;;;12.57;3.08;;;;;;;;;;5203319;27;20089;-64
2021/05/22 13:59:50;;;;;;;13.88;3.55;;;;;;;;;;5185742;27;20085;-65
2021/05/22 14:02:16;;;;;;;26.75;4.03;;;;;;;;;;5203074;27;20336;-63
2021/05/22 14:04:42;;;;;;;15.02;2.80;;;;;;;;;;5222427;27;20194;-65
2021/05/22 14:07:08;;;;;;;20.80;3.33;;;;;;;;;;5223216;27;20168;-66
2021/05/22 14:09:34;;;;;;;14.30;3.00;;;;;;;;;;5186996;27;20073;-65
2021/05/22 14:12:00;;;;;;;9.15;3.20;;;;;;;;;;5224284;27;20081;-65
2021/05/22 14:14:26;;;;;;;21.30;3.75;;;;;;;;;;5205133;27;20194;-64
2021/05/22 14:16:52;;;;;;;14.30;3.22;;;;;;;;;;5204555;27;20092;-63
2021/05/22 14:19:18;;;;;;;25.83;3.40;;;;;;;;;;5224355;27;20112;-65
2021/05/22 14:21:44;;;;;;;3.95;2.10;;;;;;;;;;5204695;27;20179;-63
2021/05/22 14:24:10;;;;;;;31.08;5.07;;;;;;;;;;5223784;27;20194;-64
2021/05/22 14:26:36;;;;;;;31.17;4.78;;;;;;;;;;5223970;27;20451;-63
2021/05/22 14:29:02;;;;;;;37.05;5.75;;;;;;;;;;5204659;27;20186;-66
2021/05/22 14:31:29;;;;;;;26.20;4.43;;;;;;;;;;5223794;27;20085;-66
2021/05/22 14:33:55;;;;;;;27.42;5.62;;;;;;;;;;5223752;27;20085;-66
2021/05/22 14:36:21;;;;;;;20.00;4.05;;;;;;;;;;5223963;27;20093;-66
2021/05/22 14:38:47;;;;;;;21.05;6.37;;;;;;;;;;5223838;27;20106;-64
2021/05/22 14:41:13;;;;;;;26.45;5.03;;;;;;;;;;5223934;27;20082;-66
2021/05/22 14:43:39;;;;;;;28.87;7.65;;;;;;;;;;5223730;27;20169;-63
2021/05/22 14:46:06;;;;;;;30.17;5.90;;;;;;;;;;5204423;27;20458;-65
2021/05/22 14:48:33;;;;;;;27.87;7.60;;;;;;;;;;5204517;27;20462;-63
2021/05/22 14:50:59;;;;;;;30.25;5.22;;;;;;;;;;5204190;27;20065;-64
2021/05/22 14:53:25;;;;;;;21.30;4.65;;;;;;;;;;5187435;27;20407;-65
2021/05/22 14:55:55;;;;;;;36.22;6.32;;;;;;;;;;5224020;27;20510;-63
2021/05/22 14:58:24;;;;;;;24.23;4.35;;;;;;;;;;5205036;27;20105;-64
2021/05/22 15:00:50;;;;;;;37.33;5.70;;;;;;;;;;5204183;27;20082;-66
2021/05/22 15:03:17;;;;;;;57.97;8.60;;;;;;;;;;5204602;27;20083;-64
2021/05/22 15:05:44;;;;;;;30.55;4.85;;;;;;;;;;5204418;27;20427;-64
2021/05/22 15:08:12;;;;;;;23.62;3.95;;;;;;;;;;5223612;27;20065;-63
2021/05/22 15:10:39;;;;;;;30.58;4.87;;;;;;;;;;5223706;27;20061;-66
2021/05/22 15:13:05;;;;;;;26.42;4.30;;;;;;;;;;5204323;27;20091;-63
2021/05/22 15:15:33;;;;;;;25.65;4.53;;;;;;;;;;5223870;27;20084;-65
2021/05/22 15:17:59;;;;;;;19.92;4.95;;;;;;;;;;5203786;27;20423;-66
2021/05/22 15:20:26;;;;;;;20.42;6.22;;;;;;;;;;5223599;27;20180;-65
2021/05/22 15:22:52;;;;;;;25.27;5.70;;;;;;;;;;5223347;27;20414;-63
2021/05/22 15:25:18;;;;;;;19.92;3.90;;;;;;;;;;5223339;27;20074;-65
2021/05/22 15:27:44;;;;;;;14.07;4.30;;;;;;;;;;5223169;27;20094;-65